sensor_id;sensor_type;location;lat;lon;timestamp;P1;durP1;ratioP1;P2;durP2;ratioP2
19036;SDS011;9651;49.138;8.900;2022-11-15T00:01:25;5.37;;;3.77;;
19036;SDS011;9651;49.138;8.900;2022-11-15T00:05:47;6.50;;;4.23;;
19036;SDS011;9651;49.138;8.900;2022-11-15T00:10:07;6.37;;;4.70;;
19036;SDS011;9651;49.138;8.900;2022-11-15T00:14:28;5.63;;;4.00;;
19036;SDS011;9651;49.138;8.900;2022-11-15T00:18:49;5.90;;;4.20;;
19036;SDS011;9651;49.138;8.900;2022-11-15T00:23:11;8.43;;;4.90;;
19036;SDS011;9651;49.138;8.900;2022-11-15T00:27:31;7.37;;;4.53;;
19036;SDS011;9651;49.138;8.900;2022-11-15T00:31:52;9.07;;;5.40;;
19036;SDS011;9651;49.138;8.900;2022-11-15T00:36:12;6.37;;;4.10;;
19036;SDS011;9651;49.138;8.900;2022-11-15T00:40:34;6.97;;;4.13;;
19036;SDS011;9651;49.138;8.900;2022-11-15T00:44:54;5.80;;;4.07;;
19036;SDS011;9651;49.138;8.900;2022-11-15T00:49:15;6.83;;;4.20;;
19036;SDS011;9651;49.138;8.900;2022-11-15T00:53:35;7.43;;;4.47;;
19036;SDS011;9651;49.138;8.900;2022-11-15T00:57:57;5.57;;;3.77;;
19036;SDS011;9651;49.138;8.900;2022-11-15T01:02:18;8.37;;;3.90;;
19036;SDS011;9651;49.138;8.900;2022-11-15T01:06:38;5.20;;;3.93;;
19036;SDS011;9651;49.138;8.900;2022-11-15T01:11:02;7.67;;;3.37;;
19036;SDS011;9651;49.138;8.900;2022-11-15T01:15:24;6.20;;;4.33;;
19036;SDS011;9651;49.138;8.900;2022-11-15T01:19:44;6.17;;;3.50;;
19036;SDS011;9651;49.138;8.900;2022-11-15T01:24:05;4.67;;;3.70;;
19036;SDS011;9651;49.138;8.900;2022-11-15T01:28:29;5.83;;;3.47;;
19036;SDS011;9651;49.138;8.900;2022-11-15T01:32:51;7.77;;;3.93;;
19036;SDS011;9651;49.138;8.900;2022-11-15T01:37:12;5.17;;;3.70;;
19036;SDS011;9651;49.138;8.900;2022-11-15T01:41:32;5.20;;;3.80;;
19036;SDS011;9651;49.138;8.900;2022-11-15T01:45:54;5.83;;;3.40;;
19036;SDS011;9651;49.138;8.900;2022-11-15T01:50:20;6.33;;;3.67;;
19036;SDS011;9651;49.138;8.900;2022-11-15T01:54:45;5.87;;;3.70;;
19036;SDS011;9651;49.138;8.900;2022-11-15T01:59:06;5.60;;;4.10;;
19036;SDS011;9651;49.138;8.900;2022-11-15T02:03:33;5.83;;;3.77;;
19036;SDS011;9651;49.138;8.900;2022-11-15T02:07:59;6.50;;;3.60;;
19036;SDS011;9651;49.138;8.900;2022-11-15T02:12:20;5.73;;;3.93;;
19036;SDS011;9651;49.138;8.900;2022-11-15T02:16:43;9.77;;;4.77;;
19036;SDS011;9651;49.138;8.900;2022-11-15T02:21:13;7.30;;;3.40;;
19036;SDS011;9651;49.138;8.900;2022-11-15T02:25:45;8.83;;;3.80;;
19036;SDS011;9651;49.138;8.900;2022-11-15T02:30:22;5.43;;;3.60;;
19036;SDS011;9651;49.138;8.900;2022-11-15T02:34:46;6.90;;;3.83;;
19036;SDS011;9651;49.138;8.900;2022-11-15T02:39:13;7.50;;;4.43;;
19036;SDS011;9651;49.138;8.900;2022-11-15T02:43:45;5.20;;;3.83;;
19036;SDS011;9651;49.138;8.900;2022-11-15T02:48:19;5.47;;;3.20;;
19036;SDS011;9651;49.138;8.900;2022-11-15T02:52:40;6.83;;;3.90;;
19036;SDS011;9651;49.138;8.900;2022-11-15T02:57:04;7.00;;;3.60;;
19036;SDS011;9651;49.138;8.900;2022-11-15T03:01:35;7.20;;;3.43;;
19036;SDS011;9651;49.138;8.900;2022-11-15T03:06:08;5.80;;;3.67;;
19036;SDS011;9651;49.138;8.900;2022-11-15T03:10:39;5.63;;;3.90;;
19036;SDS011;9651;49.138;8.900;2022-11-15T03:15:06;6.50;;;4.00;;
19036;SDS011;9651;49.138;8.900;2022-11-15T03:19:33;8.83;;;4.40;;
19036;SDS011;9651;49.138;8.900;2022-11-15T03:23:58;8.67;;;3.27;;
19036;SDS011;9651;49.138;8.900;2022-11-15T03:28:23;5.77;;;3.37;;
19036;SDS011;9651;49.138;8.900;2022-11-15T03:32:49;4.97;;;3.57;;
19036;SDS011;9651;49.138;8.900;2022-11-15T03:37:13;5.93;;;4.00;;
19036;SDS011;9651;49.138;8.900;2022-11-15T03:41:37;7.60;;;4.77;;
19036;SDS011;9651;49.138;8.900;2022-11-15T03:46:03;7.90;;;3.60;;
19036;SDS011;9651;49.138;8.900;2022-11-15T03:50:27;5.10;;;3.70;;
19036;SDS011;9651;49.138;8.900;2022-11-15T03:54:49;5.30;;;3.57;;
19036;SDS011;9651;49.138;8.900;2022-11-15T03:59:13;4.67;;;3.50;;
19036;SDS011;9651;49.138;8.900;2022-11-15T04:03:33;4.97;;;3.30;;
19036;SDS011;9651;49.138;8.900;2022-11-15T04:07:53;5.07;;;3.53;;
19036;SDS011;9651;49.138;8.900;2022-11-15T04:12:14;7.17;;;4.07;;
19036;SDS011;9651;49.138;8.900;2022-11-15T04:16:50;3.63;;;3.30;;
19036;SDS011;9651;49.138;8.900;2022-11-15T04:21:11;5.27;;;4.10;;
19036;SDS011;9651;49.138;8.900;2022-11-15T04:25:49;9.67;;;4.33;;
19036;SDS011;9651;49.138;8.900;2022-11-15T04:30:11;6.60;;;4.37;;
19036;SDS011;9651;49.138;8.900;2022-11-15T04:34:33;5.27;;;4.03;;
19036;SDS011;9651;49.138;8.900;2022-11-15T04:38:54;4.57;;;3.47;;
19036;SDS011;9651;49.138;8.900;2022-11-15T04:43:14;6.87;;;3.90;;
19036;SDS011;9651;49.138;8.900;2022-11-15T04:47:34;5.40;;;3.90;;
19036;SDS011;9651;49.138;8.900;2022-11-15T04:51:56;5.77;;;3.77;;
19036;SDS011;9651;49.138;8.900;2022-11-15T04:56:17;5.10;;;3.80;;
19036;SDS011;9651;49.138;8.900;2022-11-15T05:00:38;5.17;;;3.33;;
19036;SDS011;9651;49.138;8.900;2022-11-15T05:04:58;6.37;;;3.80;;
19036;SDS011;9651;49.138;8.900;2022-11-15T05:09:20;6.53;;;4.23;;
19036;SDS011;9651;49.138;8.900;2022-11-15T05:13:41;5.70;;;3.70;;
19036;SDS011;9651;49.138;8.900;2022-11-15T05:18:02;5.80;;;3.77;;
19036;SDS011;9651;49.138;8.900;2022-11-15T05:22:22;5.37;;;3.93;;
19036;SDS011;9651;49.138;8.900;2022-11-15T05:26:44;4.53;;;3.47;;
19036;SDS011;9651;49.138;8.900;2022-11-15T05:31:05;4.40;;;3.70;;
19036;SDS011;9651;49.138;8.900;2022-11-15T05:35:27;6.57;;;3.53;;
19036;SDS011;9651;49.138;8.900;2022-11-15T05:39:51;5.20;;;3.90;;
19036;SDS011;9651;49.138;8.900;2022-11-15T05:44:13;6.47;;;3.57;;
19036;SDS011;9651;49.138;8.900;2022-11-15T05:48:38;6.13;;;3.70;;
19036;SDS011;9651;49.138;8.900;2022-11-15T05:53:02;4.23;;;3.50;;
19036;SDS011;9651;49.138;8.900;2022-11-15T05:57:23;7.80;;;3.37;;
19036;SDS011;9651;49.138;8.900;2022-11-15T06:01:45;3.90;;;3.30;;
19036;SDS011;9651;49.138;8.900;2022-11-15T06:06:05;4.53;;;3.20;;
19036;SDS011;9651;49.138;8.900;2022-11-15T06:10:26;4.37;;;3.27;;
19036;SDS011;9651;49.138;8.900;2022-11-15T06:14:46;5.60;;;3.30;;
19036;SDS011;9651;49.138;8.900;2022-11-15T06:19:08;4.57;;;3.43;;
19036;SDS011;9651;49.138;8.900;2022-11-15T06:23:31;5.47;;;3.77;;
19036;SDS011;9651;49.138;8.900;2022-11-15T06:27:53;5.27;;;3.93;;
19036;SDS011;9651;49.138;8.900;2022-11-15T06:32:14;6.60;;;5.23;;
19036;SDS011;9651;49.138;8.900;2022-11-15T06:36:36;7.00;;;4.07;;
19036;SDS011;9651;49.138;8.900;2022-11-15T06:41:00;6.73;;;4.77;;
19036;SDS011;9651;49.138;8.900;2022-11-15T06:45:21;7.83;;;5.10;;
19036;SDS011;9651;49.138;8.900;2022-11-15T06:49:42;6.03;;;4.87;;
19036;SDS011;9651;49.138;8.900;2022-11-15T06:54:04;7.40;;;5.03;;
19036;SDS011;9651;49.138;8.900;2022-11-15T06:58:25;8.17;;;5.17;;
19036;SDS011;9651;49.138;8.900;2022-11-15T07:02:45;6.13;;;5.10;;
19036;SDS011;9651;49.138;8.900;2022-11-15T07:07:06;6.50;;;4.07;;
19036;SDS011;9651;49.138;8.900;2022-11-15T07:11:28;5.73;;;4.07;;
19036;SDS011;9651;49.138;8.900;2022-11-15T07:15:48;5.83;;;4.00;;
19036;SDS011;9651;49.138;8.900;2022-11-15T07:20:09;7.93;;;4.50;;
19036;SDS011;9651;49.138;8.900;2022-11-15T07:24:32;6.53;;;3.97;;
19036;SDS011;9651;49.138;8.900;2022-11-15T07:28:53;4.83;;;4.00;;
19036;SDS011;9651;49.138;8.900;2022-11-15T07:33:14;6.60;;;4.97;;
19036;SDS011;9651;49.138;8.900;2022-11-15T07:37:34;6.27;;;4.90;;
19036;SDS011;9651;49.138;8.900;2022-11-15T07:41:55;9.13;;;6.00;;
19036;SDS011;9651;49.138;8.900;2022-11-15T07:46:30;11.17;;;7.20;;
19036;SDS011;9651;49.138;8.900;2022-11-15T07:50:51;9.77;;;6.73;;
19036;SDS011;9651;49.138;8.900;2022-11-15T07:55:12;15.33;;;7.50;;
19036;SDS011;9651;49.138;8.900;2022-11-15T07:59:33;10.10;;;6.40;;
19036;SDS011;9651;49.138;8.900;2022-11-15T08:03:55;14.77;;;7.43;;
19036;SDS011;9651;49.138;8.900;2022-11-15T08:08:16;11.20;;;6.67;;
19036;SDS011;9651;49.138;8.900;2022-11-15T08:12:36;11.63;;;6.67;;
19036;SDS011;9651;49.138;8.900;2022-11-15T08:16:57;11.37;;;6.83;;
19036;SDS011;9651;49.138;8.900;2022-11-15T08:21:19;9.13;;;6.30;;
19036;SDS011;9651;49.138;8.900;2022-11-15T08:25:41;10.30;;;6.00;;
19036;SDS011;9651;49.138;8.900;2022-11-15T08:30:02;9.00;;;6.07;;
19036;SDS011;9651;49.138;8.900;2022-11-15T08:34:23;10.07;;;5.67;;
19036;SDS011;9651;49.138;8.900;2022-11-15T08:38:45;7.60;;;4.97;;
19036;SDS011;9651;49.138;8.900;2022-11-15T08:43:06;9.57;;;6.10;;
19036;SDS011;9651;49.138;8.900;2022-11-15T08:47:26;6.83;;;5.33;;
19036;SDS011;9651;49.138;8.900;2022-11-15T08:51:47;8.47;;;5.23;;
19036;SDS011;9651;49.138;8.900;2022-11-15T08:56:09;7.93;;;4.70;;
19036;SDS011;9651;49.138;8.900;2022-11-15T09:00:32;17.47;;;5.47;;
19036;SDS011;9651;49.138;8.900;2022-11-15T09:04:52;16.20;;;4.73;;
19036;SDS011;9651;49.138;8.900;2022-11-15T09:09:13;11.30;;;4.30;;
19036;SDS011;9651;49.138;8.900;2022-11-15T09:13:35;11.03;;;4.73;;
19036;SDS011;9651;49.138;8.900;2022-11-15T09:17:57;6.03;;;4.00;;
19036;SDS011;9651;49.138;8.900;2022-11-15T09:22:17;6.10;;;3.90;;
19036;SDS011;9651;49.138;8.900;2022-11-15T09:26:38;5.17;;;3.23;;
19036;SDS011;9651;49.138;8.900;2022-11-15T09:31:00;4.80;;;3.80;;
19036;SDS011;9651;49.138;8.900;2022-11-15T09:35:22;14.20;;;4.47;;
19036;SDS011;9651;49.138;8.900;2022-11-15T09:39:42;11.53;;;4.53;;
19036;SDS011;9651;49.138;8.900;2022-11-15T09:44:07;7.73;;;3.77;;
19036;SDS011;9651;49.138;8.900;2022-11-15T09:48:51;8.47;;;3.97;;
19036;SDS011;9651;49.138;8.900;2022-11-15T09:53:17;6.93;;;3.93;;
19036;SDS011;9651;49.138;8.900;2022-11-15T09:57:29;5.27;;;3.90;;
19036;SDS011;9651;49.138;8.900;2022-11-15T10:01:36;4.47;;;3.20;;
19036;SDS011;9651;49.138;8.900;2022-11-15T10:05:47;4.50;;;3.30;;
19036;SDS011;9651;49.138;8.900;2022-11-15T10:09:51;7.20;;;3.87;;
19036;SDS011;9651;49.138;8.900;2022-11-15T10:13:58;7.50;;;4.00;;
19036;SDS011;9651;49.138;8.900;2022-11-15T10:18:06;10.77;;;6.60;;
19036;SDS011;9651;49.138;8.900;2022-11-15T10:22:21;8.73;;;5.30;;
19036;SDS011;9651;49.138;8.900;2022-11-15T10:26:27;5.10;;;4.10;;
19036;SDS011;9651;49.138;8.900;2022-11-15T10:30:31;5.37;;;3.73;;
19036;SDS011;9651;49.138;8.900;2022-11-15T10:34:35;5.90;;;4.10;;
19036;SDS011;9651;49.138;8.900;2022-11-15T10:38:49;7.17;;;4.13;;
19036;SDS011;9651;49.138;8.900;2022-11-15T10:43:04;4.70;;;3.90;;
19036;SDS011;9651;49.138;8.900;2022-11-15T10:47:21;5.93;;;3.73;;
19036;SDS011;9651;49.138;8.900;2022-11-15T10:51:26;6.33;;;3.80;;
19036;SDS011;9651;49.138;8.900;2022-11-15T10:55:31;5.27;;;3.50;;
19036;SDS011;9651;49.138;8.900;2022-11-15T10:59:35;7.60;;;3.70;;
19036;SDS011;9651;49.138;8.900;2022-11-15T11:03:39;5.67;;;3.50;;
19036;SDS011;9651;49.138;8.900;2022-11-15T11:07:43;10.67;;;4.93;;
19036;SDS011;9651;49.138;8.900;2022-11-15T11:11:59;5.67;;;3.63;;
19036;SDS011;9651;49.138;8.900;2022-11-15T11:16:17;8.13;;;4.00;;
19036;SDS011;9651;49.138;8.900;2022-11-15T11:20:33;7.70;;;3.73;;
19036;SDS011;9651;49.138;8.900;2022-11-15T11:24:41;6.00;;;3.20;;
19036;SDS011;9651;49.138;8.900;2022-11-15T11:28:51;8.17;;;3.47;;
19036;SDS011;9651;49.138;8.900;2022-11-15T11:33:05;6.77;;;3.10;;
19036;SDS011;9651;49.138;8.900;2022-11-15T11:37:14;4.43;;;3.13;;
19036;SDS011;9651;49.138;8.900;2022-11-15T11:41:37;5.83;;;2.93;;
19036;SDS011;9651;49.138;8.900;2022-11-15T11:45:56;4.23;;;2.83;;
19036;SDS011;9651;49.138;8.900;2022-11-15T11:50:10;6.47;;;2.53;;
19036;SDS011;9651;49.138;8.900;2022-11-15T11:54:17;3.90;;;2.67;;
19036;SDS011;9651;49.138;8.900;2022-11-15T11:58:24;3.73;;;3.00;;
19036;SDS011;9651;49.138;8.900;2022-11-15T12:02:31;4.40;;;2.50;;
19036;SDS011;9651;49.138;8.900;2022-11-15T12:06:37;8.10;;;2.77;;
19036;SDS011;9651;49.138;8.900;2022-11-15T12:10:43;5.60;;;2.23;;
19036;SDS011;9651;49.138;8.900;2022-11-15T12:14:50;4.30;;;2.77;;
19036;SDS011;9651;49.138;8.900;2022-11-15T12:18:58;4.73;;;2.77;;
19036;SDS011;9651;49.138;8.900;2022-11-15T12:23:04;6.30;;;2.60;;
19036;SDS011;9651;49.138;8.900;2022-11-15T12:27:13;8.90;;;2.70;;
19036;SDS011;9651;49.138;8.900;2022-11-15T12:31:20;5.33;;;2.90;;
19036;SDS011;9651;49.138;8.900;2022-11-15T12:35:29;4.17;;;3.03;;
19036;SDS011;9651;49.138;8.900;2022-11-15T12:44:09;6.87;;;5.60;;
19036;SDS011;9651;49.138;8.900;2022-11-15T12:57:38;5.17;;;2.67;;
19036;SDS011;9651;49.138;8.900;2022-11-15T13:01:55;4.23;;;2.63;;
19036;SDS011;9651;49.138;8.900;2022-11-15T13:06:10;5.57;;;3.20;;
19036;SDS011;9651;49.138;8.900;2022-11-15T13:10:50;4.60;;;3.27;;
19036;SDS011;9651;49.138;8.900;2022-11-15T13:14:51;11.07;;;4.27;;
19036;SDS011;9651;49.138;8.900;2022-11-15T13:18:54;10.37;;;4.40;;
19036;SDS011;9651;49.138;8.900;2022-11-15T13:23:07;8.03;;;3.40;;
19036;SDS011;9651;49.138;8.900;2022-11-15T13:27:14;6.40;;;3.27;;
19036;SDS011;9651;49.138;8.900;2022-11-15T13:31:21;6.00;;;3.70;;
19036;SDS011;9651;49.138;8.900;2022-11-15T13:35:31;4.40;;;3.20;;
19036;SDS011;9651;49.138;8.900;2022-11-15T13:39:37;7.57;;;3.30;;
19036;SDS011;9651;49.138;8.900;2022-11-15T13:43:40;11.07;;;3.93;;
19036;SDS011;9651;49.138;8.900;2022-11-15T13:47:42;4.40;;;3.77;;
19036;SDS011;9651;49.138;8.900;2022-11-15T13:51:44;7.67;;;3.37;;
19036;SDS011;9651;49.138;8.900;2022-11-15T13:55:49;5.20;;;3.23;;
19036;SDS011;9651;49.138;8.900;2022-11-15T13:59:54;5.20;;;2.90;;
19036;SDS011;9651;49.138;8.900;2022-11-15T14:03:58;9.17;;;3.37;;
19036;SDS011;9651;49.138;8.900;2022-11-15T14:08:02;7.50;;;3.80;;
19036;SDS011;9651;49.138;8.900;2022-11-15T14:16:38;17.60;;;3.73;;
19036;SDS011;9651;49.138;8.900;2022-11-15T14:20:41;5.73;;;2.73;;
19036;SDS011;9651;49.138;8.900;2022-11-15T14:24:44;6.30;;;3.87;;
19036;SDS011;9651;49.138;8.900;2022-11-15T14:28:47;4.40;;;3.20;;
19036;SDS011;9651;49.138;8.900;2022-11-15T14:32:50;6.33;;;3.63;;
19036;SDS011;9651;49.138;8.900;2022-11-15T14:36:52;7.50;;;3.70;;
19036;SDS011;9651;49.138;8.900;2022-11-15T14:40:54;7.73;;;3.80;;
19036;SDS011;9651;49.138;8.900;2022-11-15T14:44:56;7.83;;;3.90;;
19036;SDS011;9651;49.138;8.900;2022-11-15T14:49:00;6.20;;;3.70;;
19036;SDS011;9651;49.138;8.900;2022-11-15T14:53:02;13.10;;;5.80;;
19036;SDS011;9651;49.138;8.900;2022-11-15T14:57:04;10.27;;;6.27;;
19036;SDS011;9651;49.138;8.900;2022-11-15T15:01:10;12.43;;;5.20;;
19036;SDS011;9651;49.138;8.900;2022-11-15T15:05:17;8.60;;;6.13;;
19036;SDS011;9651;49.138;8.900;2022-11-15T15:09:20;9.17;;;4.83;;
19036;SDS011;9651;49.138;8.900;2022-11-15T15:13:24;9.17;;;4.77;;
19036;SDS011;9651;49.138;8.900;2022-11-15T15:17:26;7.93;;;4.30;;
19036;SDS011;9651;49.138;8.900;2022-11-15T15:21:29;6.33;;;4.20;;
19036;SDS011;9651;49.138;8.900;2022-11-15T15:25:32;8.57;;;3.70;;
19036;SDS011;9651;49.138;8.900;2022-11-15T15:29:36;10.37;;;3.70;;
19036;SDS011;9651;49.138;8.900;2022-11-15T15:33:38;4.70;;;3.57;;
19036;SDS011;9651;49.138;8.900;2022-11-15T15:37:41;10.93;;;5.30;;
19036;SDS011;9651;49.138;8.900;2022-11-15T15:41:44;10.77;;;7.60;;
19036;SDS011;9651;49.138;8.900;2022-11-15T15:45:46;14.57;;;8.50;;
19036;SDS011;9651;49.138;8.900;2022-11-15T15:49:48;31.73;;;17.37;;
19036;SDS011;9651;49.138;8.900;2022-11-15T15:53:52;20.40;;;12.33;;
19036;SDS011;9651;49.138;8.900;2022-11-15T15:57:57;18.37;;;11.70;;
19036;SDS011;9651;49.138;8.900;2022-11-15T16:01:59;18.73;;;11.87;;
19036;SDS011;9651;49.138;8.900;2022-11-15T16:06:01;18.93;;;11.67;;
19036;SDS011;9651;49.138;8.900;2022-11-15T16:10:13;47.23;;;28.33;;
19036;SDS011;9651;49.138;8.900;2022-11-15T16:14:18;36.77;;;22.73;;
19036;SDS011;9651;49.138;8.900;2022-11-15T16:18:20;30.13;;;19.33;;
19036;SDS011;9651;49.138;8.900;2022-11-15T16:22:22;26.10;;;17.30;;
19036;SDS011;9651;49.138;8.900;2022-11-15T16:26:26;23.47;;;15.40;;
19036;SDS011;9651;49.138;8.900;2022-11-15T16:30:29;19.97;;;12.17;;
19036;SDS011;9651;49.138;8.900;2022-11-15T16:34:31;14.20;;;10.13;;
19036;SDS011;9651;49.138;8.900;2022-11-15T16:38:33;12.40;;;8.23;;
19036;SDS011;9651;49.138;8.900;2022-11-15T16:42:37;12.60;;;9.27;;
19036;SDS011;9651;49.138;8.900;2022-11-15T16:46:40;12.30;;;8.87;;
19036;SDS011;9651;49.138;8.900;2022-11-15T16:50:42;15.97;;;10.33;;
19036;SDS011;9651;49.138;8.900;2022-11-15T16:54:45;14.27;;;8.90;;
19036;SDS011;9651;49.138;8.900;2022-11-15T16:58:48;15.70;;;9.50;;
19036;SDS011;9651;49.138;8.900;2022-11-15T17:02:50;12.13;;;8.83;;
19036;SDS011;9651;49.138;8.900;2022-11-15T17:06:53;8.67;;;6.20;;
19036;SDS011;9651;49.138;8.900;2022-11-15T17:10:54;8.63;;;4.20;;
19036;SDS011;9651;49.138;8.900;2022-11-15T17:14:58;6.90;;;3.77;;
19036;SDS011;9651;49.138;8.900;2022-11-15T17:18:59;7.03;;;5.53;;
19036;SDS011;9651;49.138;8.900;2022-11-15T17:23:01;10.97;;;6.73;;
19036;SDS011;9651;49.138;8.900;2022-11-15T17:27:03;16.13;;;9.10;;
19036;SDS011;9651;49.138;8.900;2022-11-15T17:31:07;25.43;;;13.07;;
19036;SDS011;9651;49.138;8.900;2022-11-15T17:35:10;18.73;;;10.80;;
19036;SDS011;9651;49.138;8.900;2022-11-15T17:39:12;17.10;;;9.47;;
19036;SDS011;9651;49.138;8.900;2022-11-15T17:43:14;13.40;;;9.30;;
19036;SDS011;9651;49.138;8.900;2022-11-15T17:47:17;17.43;;;10.93;;
19036;SDS011;9651;49.138;8.900;2022-11-15T17:51:19;13.97;;;9.20;;
19036;SDS011;9651;49.138;8.900;2022-11-15T17:55:22;8.27;;;4.10;;
19036;SDS011;9651;49.138;8.900;2022-11-15T17:59:24;9.90;;;6.23;;
19036;SDS011;9651;49.138;8.900;2022-11-15T18:03:27;5.77;;;3.37;;
19036;SDS011;9651;49.138;8.900;2022-11-15T18:07:29;4.07;;;2.43;;
19036;SDS011;9651;49.138;8.900;2022-11-15T18:11:31;5.33;;;4.17;;
19036;SDS011;9651;49.138;8.900;2022-11-15T18:15:34;15.67;;;4.80;;
19036;SDS011;9651;49.138;8.900;2022-11-15T18:19:37;16.40;;;11.40;;
19036;SDS011;9651;49.138;8.900;2022-11-15T18:23:39;8.17;;;6.17;;
19036;SDS011;9651;49.138;8.900;2022-11-15T18:27:42;7.13;;;3.70;;
19036;SDS011;9651;49.138;8.900;2022-11-15T18:31:44;6.23;;;3.07;;
19036;SDS011;9651;49.138;8.900;2022-11-15T18:35:54;5.90;;;3.63;;
19036;SDS011;9651;49.138;8.900;2022-11-15T18:39:59;6.63;;;3.40;;
19036;SDS011;9651;49.138;8.900;2022-11-15T18:44:01;5.00;;;2.60;;
19036;SDS011;9651;49.138;8.900;2022-11-15T18:48:03;10.37;;;7.20;;
19036;SDS011;9651;49.138;8.900;2022-11-15T18:52:08;10.70;;;5.90;;
19036;SDS011;9651;49.138;8.900;2022-11-15T18:56:11;5.00;;;3.30;;
19036;SDS011;9651;49.138;8.900;2022-11-15T19:00:14;5.23;;;2.70;;
19036;SDS011;9651;49.138;8.900;2022-11-15T19:04:17;6.13;;;2.83;;
19036;SDS011;9651;49.138;8.900;2022-11-15T19:08:22;4.13;;;3.13;;
19036;SDS011;9651;49.138;8.900;2022-11-15T19:12:24;5.37;;;3.30;;
19036;SDS011;9651;49.138;8.900;2022-11-15T19:16:26;8.77;;;6.57;;
19036;SDS011;9651;49.138;8.900;2022-11-15T19:20:28;11.07;;;7.10;;
19036;SDS011;9651;49.138;8.900;2022-11-15T19:24:32;9.87;;;6.53;;
19036;SDS011;9651;49.138;8.900;2022-11-15T19:28:33;12.47;;;8.10;;
19036;SDS011;9651;49.138;8.900;2022-11-15T19:32:35;9.17;;;6.43;;
19036;SDS011;9651;49.138;8.900;2022-11-15T19:36:38;10.90;;;6.90;;
19036;SDS011;9651;49.138;8.900;2022-11-15T19:40:42;6.03;;;4.23;;
19036;SDS011;9651;49.138;8.900;2022-11-15T19:44:44;5.87;;;4.13;;
19036;SDS011;9651;49.138;8.900;2022-11-15T19:48:46;5.03;;;3.30;;
19036;SDS011;9651;49.138;8.900;2022-11-15T19:52:48;4.67;;;3.27;;
19036;SDS011;9651;49.138;8.900;2022-11-15T19:56:51;6.67;;;4.67;;
19036;SDS011;9651;49.138;8.900;2022-11-15T20:00:58;4.60;;;3.87;;
19036;SDS011;9651;49.138;8.900;2022-11-15T20:05:02;4.83;;;3.23;;
19036;SDS011;9651;49.138;8.900;2022-11-15T20:09:04;8.10;;;5.10;;
19036;SDS011;9651;49.138;8.900;2022-11-15T20:13:07;5.77;;;3.43;;
19036;SDS011;9651;49.138;8.900;2022-11-15T20:17:09;3.67;;;3.03;;
19036;SDS011;9651;49.138;8.900;2022-11-15T20:21:11;5.20;;;3.43;;
19036;SDS011;9651;49.138;8.900;2022-11-15T20:25:13;6.70;;;4.50;;
19036;SDS011;9651;49.138;8.900;2022-11-15T20:29:17;6.73;;;3.90;;
19036;SDS011;9651;49.138;8.900;2022-11-15T20:33:19;9.27;;;4.97;;
19036;SDS011;9651;49.138;8.900;2022-11-15T20:37:24;6.57;;;4.77;;
19036;SDS011;9651;49.138;8.900;2022-11-15T20:41:26;7.70;;;4.70;;
19036;SDS011;9651;49.138;8.900;2022-11-15T20:45:30;7.93;;;4.10;;
19036;SDS011;9651;49.138;8.900;2022-11-15T20:49:31;5.27;;;4.03;;
19036;SDS011;9651;49.138;8.900;2022-11-15T20:53:33;5.73;;;3.90;;
19036;SDS011;9651;49.138;8.900;2022-11-15T20:57:35;9.00;;;5.40;;
19036;SDS011;9651;49.138;8.900;2022-11-15T21:01:38;6.90;;;4.83;;
19036;SDS011;9651;49.138;8.900;2022-11-15T21:05:41;8.07;;;5.03;;
19036;SDS011;9651;49.138;8.900;2022-11-15T21:09:44;5.97;;;4.27;;
19036;SDS011;9651;49.138;8.900;2022-11-15T21:14:03;5.73;;;4.13;;
19036;SDS011;9651;49.138;8.900;2022-11-15T21:18:06;4.57;;;3.43;;
19036;SDS011;9651;49.138;8.900;2022-11-15T21:22:09;5.23;;;3.00;;
19036;SDS011;9651;49.138;8.900;2022-11-15T21:26:13;6.17;;;3.00;;
19036;SDS011;9651;49.138;8.900;2022-11-15T21:30:15;3.90;;;2.97;;
19036;SDS011;9651;49.138;8.900;2022-11-15T21:34:18;3.70;;;3.00;;
19036;SDS011;9651;49.138;8.900;2022-11-15T21:38:21;4.97;;;3.60;;
19036;SDS011;9651;49.138;8.900;2022-11-15T21:42:23;6.00;;;4.57;;
19036;SDS011;9651;49.138;8.900;2022-11-15T21:46:25;8.73;;;4.90;;
19036;SDS011;9651;49.138;8.900;2022-11-15T21:50:29;11.37;;;6.17;;
19036;SDS011;9651;49.138;8.900;2022-11-15T21:54:31;12.57;;;6.20;;
19036;SDS011;9651;49.138;8.900;2022-11-15T21:58:33;12.47;;;6.43;;
19036;SDS011;9651;49.138;8.900;2022-11-15T22:02:35;10.97;;;6.37;;
19036;SDS011;9651;49.138;8.900;2022-11-15T22:06:38;10.50;;;5.17;;
19036;SDS011;9651;49.138;8.900;2022-11-15T22:10:42;8.97;;;4.83;;
19036;SDS011;9651;49.138;8.900;2022-11-15T22:14:46;6.47;;;4.37;;
19036;SDS011;9651;49.138;8.900;2022-11-15T22:18:48;8.23;;;5.30;;
19036;SDS011;9651;49.138;8.900;2022-11-15T22:22:52;8.97;;;5.63;;
19036;SDS011;9651;49.138;8.900;2022-11-15T22:26:54;8.40;;;5.23;;
19036;SDS011;9651;49.138;8.900;2022-11-15T22:30:56;7.30;;;5.33;;
19036;SDS011;9651;49.138;8.900;2022-11-15T22:34:58;8.60;;;5.63;;
19036;SDS011;9651;49.138;8.900;2022-11-15T22:39:02;11.57;;;6.67;;
19036;SDS011;9651;49.138;8.900;2022-11-15T22:43:04;12.30;;;6.67;;
19036;SDS011;9651;49.138;8.900;2022-11-15T22:47:06;10.90;;;6.50;;
19036;SDS011;9651;49.138;8.900;2022-11-15T22:51:08;10.87;;;6.77;;
19036;SDS011;9651;49.138;8.900;2022-11-15T22:55:12;10.43;;;5.97;;
19036;SDS011;9651;49.138;8.900;2022-11-15T22:59:14;10.33;;;6.53;;
19036;SDS011;9651;49.138;8.900;2022-11-15T23:03:17;10.37;;;7.70;;
19036;SDS011;9651;49.138;8.900;2022-11-15T23:07:19;13.00;;;7.30;;
19036;SDS011;9651;49.138;8.900;2022-11-15T23:11:23;14.60;;;7.47;;
19036;SDS011;9651;49.138;8.900;2022-11-15T23:15:43;10.30;;;7.33;;
19036;SDS011;9651;49.138;8.900;2022-11-15T23:20:03;11.17;;;7.03;;
19036;SDS011;9651;49.138;8.900;2022-11-15T23:24:07;10.60;;;6.77;;
19036;SDS011;9651;49.138;8.900;2022-11-15T23:28:12;8.40;;;6.27;;
19036;SDS011;9651;49.138;8.900;2022-11-15T23:32:14;6.67;;;5.33;;
19036;SDS011;9651;49.138;8.900;2022-11-15T23:36:48;8.67;;;5.07;;
19036;SDS011;9651;49.138;8.900;2022-11-15T23:40:50;7.93;;;4.33;;
19036;SDS011;9651;49.138;8.900;2022-11-15T23:44:53;8.63;;;4.87;;
19036;SDS011;9651;49.138;8.900;2022-11-15T23:48:55;8.30;;;4.77;;
19036;SDS011;9651;49.138;8.900;2022-11-15T23:52:58;6.27;;;3.83;;
19036;SDS011;9651;49.138;8.900;2022-11-15T23:56:59;5.50;;;3.80;;
